Albuquerque, New Mexico
Current Conditions -  °F | °C
As of 8:52 AM on Tuesday 21 Oct 2014 (Local Time) from KABQ Reporting Station
Broken Clouds Broken Clouds  
Wind Chill: 12°   Ceiling: 6500
Heat Index: 12°   Visibility: 10mi
Dew Point:   Wind: 7mph
Humidity: 80%   Direction: 180°S
Pressure: 30.17"   Gusts: NA
Location:  35.08°N, 106.64°W
Report Text: KABQ 211452Z 18006KT 10SM FEW035 BKN065 12/08 A3017 RMK AO2 SLP174 MTNS OBSC NE-SE T01170083 53007
Loading
Personal Weather Stations






























Interactive Weather Map
Tropical Storm Tracking
New forecast layout! Learn more

10-Day Weather Forecast

Advertisements
Track Severe Weather on mobile